Time;durP1;ratioP1;P1;durP2;ratioP2;P2;SDS_P1;SDS_P2;PMS_P1;PMS_P2;Temp;Humidity;BMP_temperature;BMP_pressure;BME280_temperature;BME280_humidity;BME280_pressure;Samples;Min_cycle;Max_cycle;Signal;HPM_P1;HPM_P2
2023/05/11 00:02:19;;;;;;;17.33;5.50;;;;;;;12.92;52.94;100888.91;5205169;55;1138891;-76
2023/05/11 00:07:24;;;;;;;12.33;5.37;;;;;;;12.91;52.83;100886.73;5246079;54;1141430;-76
2023/05/11 00:12:30;;;;;;;17.77;5.13;;;;;;;12.85;52.96;100886.38;5162602;55;1141337;-76
2023/05/11 00:17:36;;;;;;;9.07;4.93;;;;;;;12.82;53.25;100889.31;5227034;54;1141234;-77
2023/05/11 00:22:41;;;;;;;14.83;6.37;;;;;;;12.77;53.44;100884.36;5289334;54;1138829;-78
2023/05/11 00:27:47;;;;;;;15.97;6.60;;;;;;;12.76;53.55;100883.16;5237143;53;1140972;-78
2023/05/11 00:32:52;;;;;;;12.30;4.77;;;;;;;12.72;53.55;100883.88;5238922;53;1141109;-80
2023/05/11 00:37:58;;;;;;;14.63;4.53;;;;;;;12.68;53.74;100879.30;5211838;54;1141093;-79
2023/05/11 00:43:04;;;;;;;13.27;5.20;;;;;;;12.65;53.87;100884.03;5256131;53;1140981;-76
2023/05/11 00:48:10;;;;;;;12.70;5.50;;;;;;;12.60;53.85;100882.22;5238881;53;1141169;-75
2023/05/11 00:53:17;;;;;;;14.50;7.35;;;;;;;12.55;53.87;100879.08;5283091;54;1162728;-76
2023/05/11 00:58:22;;;;;;;12.17;5.93;;;;;;;12.52;54.01;100882.00;5293336;54;1140896;-77
2023/05/11 01:03:28;;;;;;;11.40;4.10;;;;;;;12.47;54.30;100882.36;5227558;54;1141192;-78
2023/05/11 01:08:38;;;;;;;11.43;4.27;;;;;;;12.44;54.39;100881.27;5253148;54;1141129;-76
2023/05/11 01:13:51;;;;;;;8.67;4.80;;;;;;;12.41;54.71;100877.53;5208441;54;1141176;-76
2023/05/11 01:19:04;;;;;;;15.77;5.00;;;;;;;12.34;55.16;100880.33;5158234;55;1138990;-77
2023/05/11 01:24:15;;;;;;;18.42;5.25;;;;;;;12.27;55.07;100881.28;5235846;54;1140908;-79
2023/05/11 01:29:43;;;;;;;11.50;5.03;;;;;;;12.24;55.50;100882.00;5235481;54;1140936;-76
2023/05/11 01:34:52;;;;;;;10.23;4.87;;;;;;;12.12;56.04;100879.83;5239329;54;1140941;-77
2023/05/11 01:40:05;;;;;;;11.63;4.80;;;;;;;12.12;56.04;100879.83;5201024;55;1140845;-76
2023/05/11 01:45:13;;;;;;;6.58;3.98;;;;;;;12.07;56.09;100875.36;5237758;54;1141281;-76
2023/05/11 01:50:21;;;;;;;8.98;4.53;;;;;;;11.99;56.54;100879.11;5307905;54;1138920;-77
2023/05/11 01:55:29;;;;;;;22.80;5.93;;;;;;;11.93;56.58;100881.73;5273436;54;1138936;-78
2023/05/11 02:00:36;;;;;;;14.97;4.30;;;;;;;11.86;56.94;100883.19;5255195;54;1141280;-76
2023/05/11 02:05:44;;;;;;;6.83;4.57;;;;;;;11.81;57.04;100879.20;5272421;53;1141119;-79
2023/05/11 02:10:52;;;;;;;8.57;4.10;;;;;;;11.78;57.21;100879.42;5230149;52;1139035;-78
2023/05/11 02:16:00;;;;;;;9.77;4.43;;;;;;;11.72;57.50;100880.73;5259223;53;1138965;-76
2023/05/11 02:21:08;;;;;;;13.93;4.73;;;;;;;11.62;57.89;100882.38;5241760;53;1139656;-79
2023/05/11 02:26:16;;;;;;;12.45;5.65;;;;;;;11.52;58.37;100879.59;5266598;53;1141234;-78
2023/05/11 02:31:28;;;;;;;10.78;5.62;;;;;;;11.48;58.52;100879.92;5216339;54;1140987;-76
2023/05/11 02:36:37;;;;;;;7.23;4.70;;;;;;;11.43;58.94;100882.09;5189415;54;1141006;-77
2023/05/11 02:41:44;;;;;;;7.63;4.33;;;;;;;11.34;59.37;100886.73;5244363;54;1139041;-76
2023/05/11 02:46:53;;;;;;;13.00;5.30;;;;;;;11.32;59.13;100888.17;5284771;54;1139012;-76
2023/05/11 02:52:01;;;;;;;13.47;5.17;;;;;;;11.27;59.58;100896.48;5282855;54;1140891;-76
2023/05/11 02:57:08;;;;;;;14.90;4.65;;;;;;;11.23;59.54;100897.66;5283165;54;1141207;-77
2023/05/11 03:02:15;;;;;;;9.00;4.70;;;;;;;11.17;60.33;100895.46;5261692;54;1141156;-79
2023/05/11 03:07:21;;;;;;;10.98;4.62;;;;;;;11.16;59.91;100893.77;5238164;54;1139729;-76
2023/05/11 03:12:30;;;;;;;7.93;4.47;;;;;;;11.08;60.67;100893.50;5249773;54;1141420;-78
2023/05/11 03:17:35;;;;;;;9.27;4.87;;;;;;;11.06;60.80;100905.16;5243154;54;1138911;-78
2023/05/11 03:22:42;;;;;;;10.75;4.15;;;;;;;11.01;60.86;100907.28;5201880;54;1139042;-79
2023/05/11 03:27:48;;;;;;;19.60;6.30;;;;;;;10.94;61.00;100909.55;5233072;54;1140907;-79
2023/05/11 03:32:54;;;;;;;12.40;4.87;;;;;;;10.90;61.22;100916.86;5240567;54;1141217;-78
2023/05/11 03:38:02;;;;;;;14.60;5.37;;;;;;;10.90;61.22;100916.86;5206524;54;1141219;-76
2023/05/11 03:43:11;;;;;;;9.47;5.20;;;;;;;10.91;61.55;100923.00;5187201;52;1141896;-79
2023/05/11 03:48:18;;;;;;;15.93;5.20;;;;;;;10.84;61.99;100918.65;5263739;54;1139758;-77
2023/05/11 03:53:25;;;;;;;20.13;5.67;;;;;;;10.76;62.09;100918.34;5289006;54;1141217;-81
2023/05/11 03:58:32;;;;;;;16.83;6.37;;;;;;;10.73;62.04;100912.42;5266395;54;1140912;-74
2023/05/11 04:03:52;;;;;;;17.30;6.40;;;;;;;10.75;62.52;100928.55;5272983;54;1141010;-78
2023/05/11 04:08:59;;;;;;;24.83;6.40;;;;;;;10.73;62.52;100924.32;5251907;54;1141034;-80
2023/05/11 04:14:05;;;;;;;18.03;6.70;;;;;;;10.74;62.40;100924.69;5238229;54;1141147;-79
2023/05/11 04:19:11;;;;;;;17.17;6.70;;;;;;;10.71;62.40;100926.23;5257858;54;1140977;-80
2023/05/11 04:24:16;;;;;;;18.90;6.60;;;;;;;10.70;62.74;100922.73;5245060;53;1141133;-83
2023/05/11 04:29:22;;;;;;;8.27;4.27;;;;;;;10.69;62.93;100925.05;5218936;53;1141353;-82
2023/05/11 04:34:28;;;;;;;17.63;7.37;;;;;;;10.70;63.30;100933.31;5260134;53;1139070;-74
2023/05/11 04:39:34;;;;;;;14.23;6.43;;;;;;;10.74;63.30;100932.63;5210305;54;1141282;-80
2023/05/11 04:44:41;;;;;;;18.60;7.27;;;;;;;10.76;63.49;100935.54;5200082;54;1141046;-73
2023/05/11 04:49:46;;;;;;;17.67;6.97;;;;;;;10.78;63.82;100937.59;5212163;54;1141116;-80
2023/05/11 04:54:52;;;;;;;15.53;6.47;;;;;;;10.82;63.80;100947.02;5111372;55;1141071;-78
2023/05/11 04:59:58;;;;;;;11.97;6.70;;;;;;;10.85;64.01;100949.41;5127541;55;1141046;-77
2023/05/11 05:05:04;;;;;;;32.70;12.60;;;;;;;10.90;64.38;100951.74;5020411;57;1140992;-82
2023/05/11 05:10:11;;;;;;;29.17;13.70;;;;;;;10.98;64.08;100956.02;5071564;56;1143160;-82
2023/05/11 05:15:16;;;;;;;31.52;15.50;;;;;;;11.08;64.25;100963.65;5078342;56;1143154;-80
2023/05/11 05:20:23;;;;;;;35.03;17.05;;;;;;;11.24;63.80;100961.58;5110810;56;1143566;-84
2023/05/11 05:25:29;;;;;;;23.83;12.57;;;;;;;11.41;64.01;100955.52;5132014;56;1143104;-77
2023/05/11 05:30:35;;;;;;;19.47;10.07;;;;;;;11.58;63.72;100953.79;5110514;56;1142953;-82
2023/05/11 05:35:42;;;;;;;27.73;8.37;;;;;;;11.79;63.32;100954.84;5050293;55;1143265;-79
2023/05/11 05:40:49;;;;;;;11.87;6.73;;;;;;;12.02;63.39;100965.03;5116436;55;1141302;-77
2023/05/11 05:45:54;;;;;;;13.77;6.37;;;;;;;12.24;61.58;100959.75;5101693;55;1141157;-79
2023/05/11 05:51:01;;;;;;;12.47;5.50;;;;;;;12.38;61.19;100967.11;5103809;55;1141256;-76
2023/05/11 05:56:08;;;;;;;16.74;4.48;;;;;;;12.51;60.88;100971.84;5094753;55;1141378;-78
2023/05/11 06:01:14;;;;;;;16.47;4.50;;;;;;;12.65;59.91;100972.93;5147604;55;1140934;-81
2023/05/11 06:06:20;;;;;;;15.93;5.05;;;;;;;12.81;57.88;100971.23;5113305;56;1140917;-78
2023/05/11 06:11:26;;;;;;;11.87;4.53;;;;;;;12.87;57.84;100979.53;5113722;56;1141088;-77
2023/05/11 06:16:32;;;;;;;13.50;4.20;;;;;;;12.91;58.61;100981.47;5133421;56;1141153;-76
2023/05/11 06:21:40;;;;;;;4.22;3.52;;;;;;;13.04;58.58;100991.45;5027695;56;1141319;-79
2023/05/11 06:26:46;;;;;;;13.73;4.67;;;;;;;13.21;59.01;100994.96;5017539;57;1139208;-76
2023/05/11 06:31:53;;;;;;;14.53;4.40;;;;;;;13.42;58.91;100987.55;5123193;56;1141090;-79
2023/05/11 06:37:02;;;;;;;11.87;4.23;;;;;;;13.72;57.31;100982.36;5084443;55;1141261;-80
2023/05/11 06:42:09;;;;;;;12.14;4.02;;;;;;;13.86;56.34;100983.86;5048952;56;1256786;-77
2023/05/11 06:47:14;;;;;;;9.78;4.53;;;;;;;14.11;57.84;100988.78;5096802;56;1141210;-78
2023/05/11 06:52:20;;;;;;;13.45;5.90;;;;;;;14.32;56.77;100988.30;5003380;57;1138996;-79
2023/05/11 06:57:26;;;;;;;11.13;4.10;;;;;;;14.52;55.24;100995.91;5008824;56;1141473;-81
2023/05/11 07:02:31;;;;;;;7.30;3.97;;;;;;;14.67;56.27;100995.06;5113172;56;1141108;-77
2023/05/11 07:07:37;;;;;;;11.13;4.30;;;;;;;14.87;54.45;100994.66;5145204;55;1139176;-81
2023/05/11 07:12:43;;;;;;;6.83;4.50;;;;;;;14.80;53.39;100998.85;5109751;55;1140995;-78
2023/05/11 07:17:48;;;;;;;8.63;3.80;;;;;;;14.93;55.61;101002.12;5095552;55;1139191;-78
2023/05/11 07:22:59;;;;;;;9.43;3.93;;;;;;;15.12;53.68;100998.19;5115082;55;1139644;-79
2023/05/11 07:28:05;;;;;;;7.45;3.98;;;;;;;15.28;53.70;100993.14;5111357;56;1139075;-82
2023/05/11 07:33:10;;;;;;;9.57;4.37;;;;;;;15.42;53.95;100992.77;5028017;56;1138940;-82
2023/05/11 07:38:17;;;;;;;14.30;4.83;;;;;;;15.58;52.52;100993.59;5063820;56;1139159;-82
2023/05/11 07:43:22;;;;;;;12.80;3.47;;;;;;;15.71;52.82;100987.48;5021223;56;1141159;-80
2023/05/11 15:34:11;;;;;;;15.35;3.45;;;;;;;22.39;30.62;100872.92;5200673;54;46209;-76
2023/05/11 15:39:18;;;;;;;4.90;2.30;;;;;;;22.43;31.69;100881.48;5026340;56;1136859;-76
2023/05/11 15:44:23;;;;;;;5.82;2.56;;;;;;;22.45;31.47;100878.92;5084150;56;1139058;-74
2023/05/11 15:49:31;;;;;;;4.27;2.23;;;;;;;22.39;30.69;100882.36;5045290;56;1139034;-74
2023/05/11 15:54:37;;;;;;;2.98;1.98;;;;;;;22.31;30.47;100885.64;4980850;57;1138985;-74
2023/05/11 15:59:43;;;;;;;8.58;2.25;;;;;;;22.30;31.62;100877.26;4999507;56;1138784;-75
2023/05/11 16:04:48;;;;;;;11.73;2.60;;;;;;;22.22;31.94;100886.26;5032696;56;1138897;-73
2023/05/11 16:09:54;;;;;;;5.87;3.02;;;;;;;22.19;31.86;100887.97;5016598;57;1140906;-76
2023/05/11 16:15:00;;;;;;;16.32;3.65;;;;;;;22.21;31.51;100888.63;5011129;56;1138792;-74
2023/05/11 16:20:06;;;;;;;3.30;2.50;;;;;;;22.10;30.66;100888.58;5014085;56;1140958;-76
2023/05/11 16:25:12;;;;;;;9.43;2.62;;;;;;;22.14;31.46;100890.91;5027707;56;1138834;-73
2023/05/11 16:30:17;;;;;;;5.80;2.35;;;;;;;22.02;30.58;100887.30;5002077;57;1138846;-73
2023/05/11 16:35:23;;;;;;;5.40;2.75;;;;;;;21.93;30.87;100881.66;4932609;57;1138938;-76
2023/05/11 16:40:28;;;;;;;11.63;3.45;;;;;;;21.86;30.85;100883.40;4962974;56;1139231;-74
2023/05/11 16:45:34;;;;;;;8.75;2.75;;;;;;;21.77;30.44;100885.86;5039313;56;1141188;-76
2023/05/11 16:50:40;;;;;;;50.05;3.50;;;;;;;21.73;31.06;100883.19;5030743;56;1138896;-76
2023/05/11 16:55:45;;;;;;;8.63;2.52;;;;;;;21.64;31.39;100878.91;5051388;56;1141151;-74
2023/05/11 17:00:51;;;;;;;13.10;4.05;;;;;;;21.53;31.21;100884.74;5041142;57;1138832;-74
2023/05/11 17:05:57;;;;;;;12.37;5.67;;;;;;;21.41;31.47;100885.15;5012237;57;1141122;-74
2023/05/11 17:11:03;;;;;;;11.50;4.28;;;;;;;21.27;31.98;100889.97;5012837;56;1140917;-75
2023/05/11 17:16:09;;;;;;;4.97;2.80;;;;;;;21.24;33.44;100897.55;5056075;56;1141076;-74
2023/05/11 17:21:15;;;;;;;5.03;3.10;;;;;;;21.16;33.43;100898.42;4979729;57;1138979;-75
2023/05/11 17:26:21;;;;;;;6.03;2.70;;;;;;;21.04;34.10;100898.01;4958631;56;1138910;-75
2023/05/11 17:31:26;;;;;;;4.50;2.22;;;;;;;20.92;34.61;100903.47;5011846;56;1138922;-74
2023/05/11 17:36:32;;;;;;;5.97;2.10;;;;;;;20.76;35.82;100912.12;5073771;56;1138872;-75
2023/05/11 17:41:38;;;;;;;7.77;2.83;;;;;;;20.54;36.06;100914.55;5082321;56;1138748;-74
2023/05/11 17:46:43;;;;;;;15.57;3.10;;;;;;;20.37;36.50;100912.93;5037113;56;1138777;-74
2023/05/11 17:51:49;;;;;;;10.50;3.12;;;;;;;20.20;36.89;100913.95;4990184;57;1140806;-73
2023/05/11 17:56:55;;;;;;;16.35;3.77;;;;;;;20.07;37.19;100922.55;4954587;57;1140978;-75
2023/05/11 18:02:00;;;;;;;8.95;3.20;;;;;;;19.90;37.56;100925.75;4962424;56;1140978;-76
2023/05/11 18:07:06;;;;;;;7.10;3.77;;;;;;;19.78;38.11;100932.98;5014598;56;1138893;-76
2023/05/11 18:12:12;;;;;;;9.13;2.98;;;;;;;19.59;38.47;100932.81;5030731;56;1138688;-76
2023/05/11 18:17:18;;;;;;;4.17;2.80;;;;;;;19.47;38.90;100941.66;5032492;56;1138804;-76
2023/05/11 18:22:24;;;;;;;9.48;2.55;;;;;;;19.32;39.20;100945.50;5048842;57;1138824;-75
2023/05/11 18:27:29;;;;;;;14.00;3.05;;;;;;;19.18;39.66;100938.61;4964394;57;1138872;-76
2023/05/11 18:32:35;;;;;;;6.65;2.50;;;;;;;19.01;40.00;100945.77;5101803;55;1140979;-75
2023/05/11 18:37:41;;;;;;;12.93;2.90;;;;;;;18.89;40.61;100957.30;5124280;55;1138851;-75
2023/05/11 18:42:46;;;;;;;27.05;3.85;;;;;;;18.75;40.87;100963.77;5075123;55;1140782;-75
2023/05/11 18:47:52;;;;;;;13.20;2.80;;;;;;;18.56;41.17;100960.30;5139981;55;1140926;-76
2023/05/11 18:52:58;;;;;;;9.18;3.00;;;;;;;18.38;41.68;100964.88;5177191;55;1140924;-75
2023/05/11 18:58:03;;;;;;;12.63;2.80;;;;;;;18.19;42.12;100975.80;5105246;56;1138715;-75
2023/05/11 19:03:09;;;;;;;9.33;2.90;;;;;;;18.09;42.38;100977.24;5156646;55;1140912;-75
2023/05/11 19:08:15;;;;;;;11.03;2.60;;;;;;;17.92;42.79;100986.98;5176991;55;1138854;-75
2023/05/11 19:13:21;;;;;;;11.97;2.70;;;;;;;17.81;42.88;100995.27;5139876;54;1140945;-74
2023/05/11 19:18:28;;;;;;;14.04;2.76;;;;;;;17.78;43.24;101008.09;5042624;56;1140854;-75
2023/05/11 19:23:34;;;;;;;5.60;3.15;;;;;;;17.66;43.39;101008.84;5026362;56;1141055;-75
2023/05/11 19:28:40;;;;;;;10.28;4.00;;;;;;;17.56;43.41;101018.25;5047249;56;1138846;-75
2023/05/11 19:33:45;;;;;;;7.07;3.73;;;;;;;17.55;43.48;101021.91;5017327;57;1141094;-75
2023/05/11 19:38:51;;;;;;;11.37;3.93;;;;;;;17.52;43.11;101022.70;5099657;55;1138831;-75
2023/05/11 19:43:56;;;;;;;7.17;4.17;;;;;;;17.51;43.16;101025.88;5074170;56;1140831;-75
2023/05/11 19:49:02;;;;;;;13.17;4.67;;;;;;;17.52;43.10;101028.89;5017767;57;1138848;-75
2023/05/11 19:54:08;;;;;;;13.20;4.93;;;;;;;17.52;43.23;101038.26;5063620;56;1140744;-75
2023/05/11 19:59:14;;;;;;;15.63;6.37;;;;;;;17.46;43.22;101036.67;5121064;56;1140787;-75
2023/05/11 20:04:19;;;;;;;14.93;7.93;;;;;;;17.39;43.35;101038.28;5100876;56;1141021;-76
2023/05/11 20:09:28;;;;;;;13.30;5.10;;;;;;;17.29;43.59;101044.16;5101152;56;1140959;-76
2023/05/11 20:14:35;;;;;;;8.35;4.40;;;;;;;17.18;43.85;101048.73;5105823;55;1140899;-75
2023/05/11 20:19:41;;;;;;;9.95;4.22;;;;;;;17.04;43.94;101044.38;5169554;55;1138925;-75
2023/05/11 20:24:46;;;;;;;7.80;3.97;;;;;;;17.01;44.03;101052.19;5101915;55;1138851;-76
2023/05/11 20:29:52;;;;;;;10.93;4.70;;;;;;;16.97;44.10;101052.62;5042368;56;1138625;-76
2023/05/11 20:35:00;;;;;;;12.80;4.33;;;;;;;16.87;44.25;101053.51;5155116;55;1140926;-76
2023/05/11 20:40:06;;;;;;;4.70;3.60;;;;;;;16.81;44.32;101056.75;5176199;55;1140991;-76
2023/05/11 20:45:12;;;;;;;14.53;4.80;;;;;;;16.72;44.56;101057.64;5043366;56;1138856;-75
2023/05/11 20:50:18;;;;;;;8.67;4.90;;;;;;;16.67;44.41;101059.89;5038663;56;1140891;-75
2023/05/11 20:55:24;;;;;;;7.10;3.97;;;;;;;16.59;44.53;101057.58;5021991;56;1138821;-77
2023/05/11 21:00:30;;;;;;;9.75;3.90;;;;;;;16.47;44.59;101062.25;5041092;56;1138889;-75
2023/05/11 21:05:35;;;;;;;10.55;3.75;;;;;;;16.38;44.67;101063.94;5031936;56;1138753;-76
2023/05/11 21:10:42;;;;;;;5.17;2.65;;;;;;;16.32;44.84;101063.20;5036313;55;1140904;-76
2023/05/11 21:15:47;;;;;;;10.13;3.23;;;;;;;16.28;44.78;101066.28;5031966;56;1138756;-77
2023/05/11 21:20:53;;;;;;;5.03;2.57;;;;;;;16.22;44.76;101073.02;5116511;56;1140872;-76
2023/05/11 21:26:00;;;;;;;4.40;3.10;;;;;;;16.15;44.76;101077.25;5120980;56;1138619;-76
2023/05/11 21:31:05;;;;;;;12.37;3.70;;;;;;;16.10;44.90;101078.16;4999873;56;1138655;-75
2023/05/11 21:36:11;;;;;;;9.13;3.40;;;;;;;16.00;45.06;101084.84;5097980;56;1140707;-75
2023/05/11 21:41:17;;;;;;;9.37;3.47;;;;;;;15.90;45.20;101083.97;5121577;56;1142154;-75
2023/05/11 21:46:22;;;;;;;8.83;4.00;;;;;;;15.81;45.50;101080.82;5100053;56;1229882;-75
2023/05/11 21:51:28;;;;;;;10.23;4.43;;;;;;;15.72;45.76;101083.00;5101027;56;1172465;-75
2023/05/11 21:56:33;;;;;;;9.93;3.77;;;;;;;15.64;45.90;101085.50;5101885;56;1140985;-75
2023/05/11 22:01:40;;;;;;;8.85;4.17;;;;;;;15.57;46.01;101092.38;5121555;56;1139037;-75
2023/05/11 22:06:45;;;;;;;10.03;3.93;;;;;;;15.51;46.16;101095.05;5101209;56;1138728;-74
2023/05/11 22:11:51;;;;;;;10.93;3.47;;;;;;;15.44;46.45;101096.56;5101291;56;1140774;-74
2023/05/11 22:16:57;;;;;;;5.83;3.60;;;;;;;15.36;46.59;101103.08;5143777;55;1140921;-76
2023/05/11 22:22:02;;;;;;;14.33;4.03;;;;;;;15.26;46.81;101100.88;5101464;56;1138865;-75
2023/05/11 22:27:14;;;;;;;5.30;3.90;;;;;;;15.17;47.00;101105.66;5087881;55;1140968;-75
2023/05/11 22:32:15;;;;;;;10.83;4.63;;;;;;;15.09;47.34;101103.20;5067773;55;1138740;-74
2023/05/11 22:37:21;;;;;;;7.07;4.30;;;;;;;15.05;47.49;101103.59;5016638;55;1248797;-75
2023/05/11 22:42:29;;;;;;;6.57;4.10;;;;;;;14.98;47.67;101109.92;4996714;56;1241133;-75
2023/05/11 22:47:34;;;;;;;10.03;4.43;;;;;;;14.92;47.79;101108.30;5030304;56;1138832;-74
2023/05/11 22:52:39;;;;;;;12.55;4.50;;;;;;;14.84;48.08;101112.94;5091270;56;1141020;-74
2023/05/11 22:57:45;;;;;;;5.77;4.03;;;;;;;14.78;48.07;101107.67;5072001;55;1140855;-74
2023/05/11 23:02:51;;;;;;;5.63;4.07;;;;;;;14.72;48.27;101102.02;5069694;55;1248102;-75
2023/05/11 23:07:58;;;;;;;5.67;4.03;;;;;;;14.61;48.59;101104.27;5091687;56;1138949;-74
2023/05/11 23:13:04;;;;;;;7.40;4.30;;;;;;;14.53;48.79;101106.72;5019955;56;1240035;-75
2023/05/11 23:18:10;;;;;;;10.70;4.40;;;;;;;14.50;48.99;101104.83;5022557;55;1138889;-75
2023/05/11 23:23:16;;;;;;;7.57;3.80;;;;;;;14.45;48.96;101103.88;5047980;55;1140875;-74
2023/05/11 23:28:22;;;;;;;6.50;4.10;;;;;;;14.41;49.13;101115.27;5094967;56;1139093;-75
2023/05/11 23:33:27;;;;;;;10.83;4.03;;;;;;;14.36;49.27;101106.78;5109976;55;1148329;-75
2023/05/11 23:38:33;;;;;;;6.67;4.17;;;;;;;14.32;49.39;101116.50;5071838;55;1144623;-75
2023/05/11 23:43:38;;;;;;;6.97;4.45;;;;;;;14.26;49.61;101112.53;5189654;55;1138753;-75
2023/05/11 23:48:44;;;;;;;10.15;3.67;;;;;;;14.18;49.79;101111.01;5188295;55;1138795;-74
2023/05/11 23:53:50;;;;;;;6.37;4.47;;;;;;;14.09;49.95;101106.44;5187866;55;1171513;-74
2023/05/11 23:58:55;;;;;;;12.70;4.43;;;;;;;14.02;50.15;101113.25;5209267;55;1139001;-74
